ADDS METAR Data INFO
IDs: Format: Raw Decoded Include TAF

Data at: 0738 UTC 21 Jul 2018

PABR 210734Z AUTO 23009KT 1 3/4SM R07/5500VP6000FT BR BKN003 OVC009 07/06 A3013 RMK AO2 T00670061 TSNO
PABR 210728Z AUTO 24011KT 3SM BR BKN003 BKN007 OVC021 07/06 A3013 RMK AO2 T00670061 TSNO
PABR 210716Z AUTO 24010KT 4SM BR FEW006 BKN010 OVC025 07/06 A3013 RMK AO2 T00720056 TSNO
PABR 210653Z AUTO 24009KT 10SM BKN015 OVC028 07/06 A3013 RMK AO2 SLP204 T00670056 TSNO
PABR 210553Z 25011KT 10SM OVC022 07/05 A3013 RMK AO2 SLP202 T00720050 10078 20067 52004
PABR 210453Z 25010KT 10SM BKN029 07/05 A3012 RMK AO2 SLP201 T00720050
PABR 210451Z 25010KT 10SM BKN029 07/05 A3012 RMK AO2
PABR 210353Z 24012KT 10SM SCT035 OVC060 08/05 A3012 RMK AO2 SLP199 T00780050
PABR 210253Z 24010KT 10SM OVC039 07/05 A3012 RMK AO2 SLP201 T00720050 53005
PABR 210153Z 25012KT 10SM SCT045 07/04 A3012 RMK AO2 SLP199 T00720044
PABR 210053Z 26009KT 10SM FEW140 08/05 A3010 RMK AO2 SLP195 T00780050
PABR 202353Z 26010KT 10SM CLR 07/04 A3011 RMK AO2 SLP196 T00670039 10067 20044 56002
PABR 202253Z 25011KT 10SM FEW015 BKN140 06/03 A3011 RMK AO2 SLP196 T00610033
PABR 202153Z 25012KT 10SM FEW015 BKN140 07/03 A3011 RMK AO2 SLP196 T00670033
PABR 202136Z 25013KT 10SM SCT015 BKN140 06/03 A3011 RMK AO2 T00610033
PABR 202053Z 25012KT 10SM OVC013 06/03 A3011 RMK AO2 SLP197 T00610028 53003
PABR 201953Z 25014KT 10SM OVC012 06/03 A3011 RMK AO2 SLP196 T00560028
PABR 201853Z 25014KT 10SM OVC011 05/03 A3010 RMK AO2 SLP195 T00500028
PABR 201753Z 25015KT 10SM OVC011 04/02 A3010 RMK AO2 SLP195 T00440022 10044 20033 58007
PABR 201653Z 25014KT 10SM OVC010 04/02 A3012 RMK AO2 SLP199 T00440022
PABR 201553Z 25013KT 10SM BKN011 04/02 A3012 RMK AO2 SLP199 T00390017
PABR 201453Z 26015KT 10SM BKN012 04/01 A3013 RMK AO2 SLP202 T00390011 50001
PABR 201353Z 27012KT 10SM BKN013 04/02 A3013 RMK AO2 SLP204 T00390017
PABR 201253Z AUTO 26014G22KT 10SM OVC014 04/02 A3012 RMK AO2 SLP201 T00390017 TSNO
PABR 201249Z AUTO 26013G22KT 10SM OVC014 04/02 A3012 RMK AO2 TSNO
PABR 201153Z AUTO 27015KT 10SM OVC015 04/02 A3013 RMK AO2 SLP203 T00390017 10044 20039 53001 TSNO
PABR 201112Z AUTO 27016G23KT 10SM OVC016 04/01 A3013 RMK AO2 T00440011 TSNO
PABR 201053Z AUTO 27018G22KT 10SM OVC014 04/02 A3012 RMK AO2 SLP201 T00390017 TSNO
PABR 200953Z AUTO 26018G25KT 10SM OVC016 04/02 A3012 RMK AO2 SLP201 T00440017 TSNO
PABR 200944Z AUTO 26017G23KT 10SM OVC015 04/02 A3013 RMK AO2 T00440017 TSNO
PABR 200914Z AUTO 26019G23KT 10SM OVC014 04/02 A3012 RMK AO2 T00440022 TSNO
PABR 200853Z AUTO 27019KT 10SM OVC015 04/02 A3012 RMK AO2 SLP202 T00390022 400560028 53001 TSNO
PABR 200753Z AUTO 26016KT 10SM OVC016 04/02 A3012 RMK AO2 SLP200 T00440022 TSNO
PABR 200653Z AUTO 26018G23KT 10SM OVC017 04/02 A3012 RMK AO2 PK WND 26026/0608 SLP200 T00440017 TSNO
PABR 200617Z AUTO 26017G26KT 10SM OVC015 04/01 A3012 RMK AO2 PK WND 26026/0608 T00390011 TSNO
PABR 200553Z 25021G27KT 10SM OVC014 04/01 A3012 RMK AO2 PK WND 25027/0553 SLP201 T00390011 10056 20039 51003
PABR 200453Z 26015KT 10SM OVC015 04/02 A3012 RMK AO2 SLP200 T00440017
PABR 200353Z 27018G24KT 10SM OVC015 04/01 A3012 RMK AO2 PK WND 27027/0312 SLP200 T00440011
PABR 200253Z 27018KT 10SM BKN017 05/02 A3011 RMK AO2 PK WND 27029/0228 SLP198 T00500017 51017
PABR 200153Z 27022G30KT 10SM OVC016 04/01 A3010 RMK AO2 PK WND 28030/0123 SLP193 T00440011
PABR 200123Z 28025G30KT 10SM BKN016 05/01 A3009 RMK AO2 PK WND 28030/0123 T00500011
PABR 200053Z 27022G30KT 10SM SCT015 05/01 A3008 RMK AO2 PK WND 27030/0052 SLP187 T00500011
PABR 192353Z 28022G26KT 10SM CLR 05/01 A3006 RMK AO2 PK WND 27029/2328 SLP181 60000 T00500011 10050 20033 53020
PABR 192336Z 27022G29KT 10SM FEW016 05/01 A3006 RMK AO2 PK WND 27029/2328 T00500011
PABR 192253Z 28021G29KT 10SM FEW012 BKN026 05/01 A3005 RMK AO2 PK WND 27029/2250 SLP175 T00500011
PABR 192153Z 27019KT 10SM FEW012 BKN026 OVC035 04/02 A3002 RMK AO2 PK WND 27026/2126 SLP168 T00440017
PABR 192053Z 27018G23KT 10SM FEW011 04/01 A3001 RMK AO2 PK WND 27028/1958 SLP161 60000 T00440011 53021
PABR 192022Z 28019G27KT 10SM SCT014 04/01 A3000 RMK AO2 PK WND 27028/1958 T00390011
PABR 192000Z 27020G28KT 10SM FEW009 BKN018 OVC024 03/01 A2999 RMK AO2 PK WND 27028/1958 T00330011
PABR 191953Z 28020G24KT 10SM FEW010 BKN024 04/02 A2998 RMK AO2 PK WND 28027/1930 RAB33E44 SLP154 P0000 T00390017